createdAt,value
2018-04-09T00:02:22.087Z,98.80
2018-04-09T00:04:49.012Z,99.20
2018-04-09T00:07:15.935Z,99.50
2018-04-09T00:09:42.873Z,99.60
2018-04-09T00:12:09.795Z,99.60
2018-04-09T00:14:36.710Z,99.90
2018-04-09T00:17:03.576Z,99.90
2018-04-09T00:19:30.498Z,99.90
2018-04-09T00:21:58.183Z,99.90
2018-04-09T00:24:25.108Z,99.90
2018-04-09T00:26:52.704Z,99.90
2018-04-09T00:29:19.638Z,99.90
2018-04-09T00:31:46.668Z,99.90
2018-04-09T00:34:13.588Z,99.90
2018-04-09T00:36:41.272Z,99.90
2018-04-09T00:39:08.155Z,99.90
2018-04-09T00:41:35.015Z,99.90
2018-04-09T00:44:01.975Z,99.90
2018-04-09T00:46:28.850Z,99.90
2018-04-09T00:48:55.762Z,99.90
2018-04-09T00:51:22.622Z,99.90
2018-04-09T00:53:59.442Z,99.90
2018-04-09T00:56:26.398Z,99.90
2018-04-09T00:58:53.350Z,99.90
2018-04-09T01:01:20.238Z,99.90
2018-04-09T01:03:47.148Z,99.90
2018-04-09T01:06:14.137Z,99.90
2018-04-09T01:08:41.791Z,99.90
2018-04-09T01:11:08.722Z,99.90
2018-04-09T01:13:35.728Z,99.90
2018-04-09T01:16:02.687Z,99.90
2018-04-09T01:18:29.619Z,99.90
2018-04-09T01:20:56.587Z,99.90
2018-04-09T01:23:23.590Z,99.90
2018-04-09T01:25:50.526Z,99.90
2018-04-09T01:28:18.199Z,99.90
2018-04-09T01:30:45.070Z,99.90
2018-04-09T01:33:12.009Z,99.90
2018-04-09T01:35:38.934Z,99.90
2018-04-09T01:38:06.595Z,99.90
2018-04-09T01:40:33.451Z,99.90
2018-04-09T01:43:00.482Z,99.90
2018-04-09T01:45:27.408Z,99.90
2018-04-09T01:47:54.277Z,99.90
2018-04-09T01:50:21.199Z,99.90
2018-04-09T01:52:48.145Z,99.90
2018-04-09T01:55:15.022Z,99.90
2018-04-09T01:57:41.894Z,99.90
2018-04-09T02:00:08.832Z,99.90
2018-04-09T02:02:35.815Z,99.90
2018-04-09T02:05:02.744Z,99.90
2018-04-09T02:07:29.694Z,99.90
2018-04-09T02:09:56.547Z,99.90
2018-04-09T02:12:23.533Z,99.90
2018-04-09T02:14:50.387Z,99.90
2018-04-09T02:17:17.299Z,99.90
2018-04-09T02:19:44.154Z,99.90
2018-04-09T02:22:10.999Z,99.90
2018-04-09T02:24:37.926Z,99.90
2018-04-09T02:27:04.795Z,99.90
2018-04-09T02:29:32.471Z,99.90
2018-04-09T02:31:59.394Z,99.90
2018-04-09T02:34:26.239Z,99.90
2018-04-09T02:36:53.187Z,99.90
2018-04-09T02:39:20.099Z,99.90
2018-04-09T02:41:46.955Z,99.90
2018-04-09T02:44:13.891Z,99.90
2018-04-09T02:46:40.797Z,99.90
2018-04-09T02:49:07.698Z,99.90
2018-04-09T02:51:34.625Z,99.90
2018-04-09T02:54:01.517Z,99.90
2018-04-09T02:56:28.444Z,99.90
2018-04-09T02:58:55.351Z,99.90
2018-04-09T03:01:22.236Z,99.90
2018-04-09T03:03:49.232Z,99.90
2018-04-09T03:06:16.199Z,99.90
2018-04-09T03:08:43.048Z,99.90
2018-04-09T03:11:09.971Z,99.90
2018-04-09T03:13:36.915Z,99.90
2018-04-09T03:16:03.782Z,99.90
2018-04-09T03:18:30.706Z,99.90
2018-04-09T03:20:57.567Z,99.90
2018-04-09T03:23:24.568Z,99.90
2018-04-09T03:25:51.427Z,99.90
2018-04-09T03:28:18.470Z,99.90
2018-04-09T03:30:45.322Z,99.90
2018-04-09T03:33:12.241Z,99.90
2018-04-09T03:35:39.204Z,99.90
2018-04-09T03:38:06.056Z,99.90
2018-04-09T03:40:32.935Z,99.90
2018-04-09T03:42:59.847Z,99.90
2018-04-09T03:45:26.778Z,99.90
2018-04-09T03:47:53.666Z,99.90
2018-04-09T03:50:20.595Z,99.90
2018-04-09T03:52:47.514Z,99.90
2018-04-09T03:55:15.177Z,99.90
2018-04-09T03:57:42.767Z,99.90
2018-04-09T04:00:09.670Z,99.90
2018-04-09T04:02:37.275Z,99.90
2018-04-09T04:05:04.217Z,99.90
2018-04-09T04:07:31.135Z,99.90
2018-04-09T04:09:58.810Z,99.90
2018-04-09T04:12:25.756Z,99.90
2018-04-09T04:14:52.614Z,99.90
2018-04-09T04:17:31.633Z,99.90
2018-04-09T04:20:10.570Z,99.90
2018-04-09T04:22:37.551Z,99.90
2018-04-09T04:25:04.426Z,99.90
2018-04-09T04:27:46.046Z,99.90
2018-04-09T04:30:13.773Z,99.90
2018-04-09T04:32:40.963Z,99.90
2018-04-09T04:35:07.831Z,99.90
2018-04-09T04:37:34.704Z,99.90
2018-04-09T04:40:01.646Z,99.90
2018-04-09T04:42:42.043Z,99.90
2018-04-09T04:45:09.473Z,99.90
2018-04-09T04:47:37.275Z,99.90
2018-04-09T04:50:05.319Z,99.90
2018-04-09T04:52:32.986Z,99.90
2018-04-09T04:55:08.258Z,99.90
2018-04-09T04:57:35.187Z,99.90
2018-04-09T05:02:46.177Z,99.90
2018-04-09T05:05:13.059Z,99.90
2018-04-09T05:07:39.998Z,99.90
2018-04-09T05:10:08.265Z,99.90
2018-04-09T05:12:50.355Z,99.90
2018-04-09T05:15:20.777Z,99.90
2018-04-09T05:17:49.946Z,99.90
2018-04-09T05:20:16.824Z,99.90
2018-04-09T05:22:54.383Z,99.90
2018-04-09T05:25:22.936Z,99.90
2018-04-09T05:27:53.083Z,99.90
2018-04-09T05:30:25.812Z,99.90
2018-04-09T05:33:04.900Z,99.90
2018-04-09T05:35:41.393Z,99.90
2018-04-09T05:38:17.086Z,99.90
2018-04-09T05:40:49.196Z,99.90
2018-04-09T05:43:16.123Z,99.90
2018-04-09T05:45:43.055Z,99.90
2018-04-09T05:48:10.016Z,99.90
2018-04-09T05:50:36.877Z,99.90
2018-04-09T05:53:03.840Z,99.90
2018-04-09T05:55:31.467Z,99.90
2018-04-09T05:58:07.655Z,99.90
2018-04-09T06:00:34.558Z,99.90
2018-04-09T06:03:01.549Z,99.90
2018-04-09T06:05:41.626Z,99.90
2018-04-09T06:08:09.492Z,99.90
2018-04-09T06:10:37.243Z,99.90
2018-04-09T06:13:04.267Z,99.90
2018-04-09T06:15:31.139Z,99.90
2018-04-09T06:17:58.768Z,99.90
2018-04-09T06:20:25.725Z,99.90
2018-04-09T06:22:52.650Z,99.90
2018-04-09T06:25:19.522Z,99.90
2018-04-09T06:27:47.257Z,99.90
2018-04-09T06:30:14.137Z,99.90
2018-04-09T06:32:41.865Z,99.90
2018-04-09T06:35:08.892Z,99.90
2018-04-09T06:37:35.856Z,99.90
2018-04-09T06:40:02.927Z,99.90
2018-04-09T06:42:29.872Z,99.90
2018-04-09T06:44:56.886Z,99.90
2018-04-09T06:47:25.302Z,99.90
2018-04-09T06:49:52.252Z,99.90
2018-04-09T06:52:19.205Z,99.90
2018-04-09T06:54:46.155Z,99.90
2018-04-09T06:57:13.056Z,99.90
2018-04-09T06:59:40.059Z,99.90
2018-04-09T07:02:07.797Z,99.90
2018-04-09T07:04:34.823Z,99.90
2018-04-09T07:07:01.764Z,99.90
2018-04-09T07:09:28.632Z,99.90
2018-04-09T07:11:55.567Z,99.90
2018-04-09T07:14:22.495Z,99.90
2018-04-09T07:16:49.497Z,99.90
2018-04-09T07:19:16.503Z,99.90
2018-04-09T07:21:43.465Z,99.90
2018-04-09T07:24:10.455Z,99.90
2018-04-09T07:26:38.080Z,99.90
2018-04-09T07:29:05.040Z,99.90
2018-04-09T07:31:32.011Z,99.90
2018-04-09T07:33:59.679Z,99.90
2018-04-09T07:36:26.616Z,99.90
2018-04-09T07:38:53.569Z,99.90
2018-04-09T07:41:20.479Z,99.90
2018-04-09T07:43:47.423Z,99.90
2018-04-09T07:46:14.303Z,99.90
2018-04-09T07:48:41.981Z,99.90
2018-04-09T07:51:08.843Z,99.90
2018-04-09T07:53:35.765Z,99.90
2018-04-09T07:56:02.647Z,99.90
2018-04-09T07:58:29.582Z,99.60
2018-04-09T08:00:56.455Z,99.60
2018-04-09T08:03:23.389Z,99.60
2018-04-09T08:05:50.335Z,99.60
2018-04-09T08:08:17.195Z,99.50
2018-04-09T08:10:44.093Z,98.30
2018-04-09T08:13:11.027Z,98.30
2018-04-09T08:15:38.640Z,94.50
2018-04-09T08:18:05.602Z,94.50
2018-04-09T08:20:32.526Z,93.20
2018-04-09T08:22:59.382Z,92.60
2018-04-09T08:25:26.327Z,93.40
2018-04-09T08:27:53.247Z,94.80
2018-04-09T08:30:20.189Z,94.60
2018-04-09T08:32:47.125Z,94.60
2018-04-09T08:35:14.055Z,93.90
2018-04-09T08:37:41.674Z,92.30
2018-04-09T08:40:08.631Z,92.30
2018-04-09T08:42:36.316Z,92.00
2018-04-09T08:45:04.015Z,93.00
2018-04-09T08:47:30.960Z,93.00
2018-04-09T08:49:57.883Z,94.20
2018-04-09T08:52:26.489Z,93.20
2018-04-09T08:54:53.413Z,93.20
2018-04-09T08:57:20.528Z,94.00
2018-04-09T08:59:47.408Z,93.30
2018-04-09T09:02:15.167Z,92.90
2018-04-09T09:04:42.777Z,93.00
2018-04-09T09:07:09.680Z,93.00
2018-04-09T09:09:37.340Z,91.90
2018-04-09T09:12:05.077Z,92.30
2018-04-09T09:14:31.962Z,92.30
2018-04-09T09:16:58.918Z,92.00
2018-04-09T09:19:25.863Z,91.20
2018-04-09T09:21:52.817Z,91.20
2018-04-09T09:24:19.740Z,90.40
2018-04-09T09:26:47.367Z,90.00
2018-04-09T09:29:14.274Z,90.00
2018-04-09T09:31:41.149Z,88.40
2018-04-09T09:34:08.059Z,85.60
2018-04-09T09:36:34.989Z,84.70
2018-04-09T09:39:01.880Z,80.30
2018-04-09T09:41:28.815Z,82.40
2018-04-09T09:43:55.682Z,81.60
2018-04-09T09:46:22.600Z,81.30
2018-04-09T09:48:49.532Z,75.70
2018-04-09T09:51:16.392Z,72.60
2018-04-09T09:53:43.316Z,78.40
2018-04-09T09:56:10.243Z,72.10
2018-04-09T09:58:37.913Z,74.10
2018-04-09T10:01:09.674Z,74.00
2018-04-09T10:03:36.571Z,74.50
2018-04-09T10:06:03.528Z,74.20
2018-04-09T10:08:30.397Z,73.50
2018-04-09T10:10:57.347Z,72.60
2018-04-09T10:13:25.018Z,73.30
2018-04-09T10:15:51.891Z,73.40
2018-04-09T10:18:18.827Z,73.50
2018-04-09T10:20:45.779Z,73.60
2018-04-09T10:23:12.658Z,74.60
2018-04-09T10:25:39.593Z,75.40
2018-04-09T10:28:06.476Z,73.70
2018-04-09T10:30:34.147Z,75.30
2018-04-09T10:33:01.818Z,73.30
2018-04-09T10:35:28.765Z,73.40
2018-04-09T10:37:55.651Z,75.60
2018-04-09T10:40:22.515Z,74.30
2018-04-09T10:42:49.524Z,73.70
2018-04-09T10:45:16.388Z,71.80
2018-04-09T10:47:43.297Z,70.10
2018-04-09T10:50:10.174Z,71.30
2018-04-09T10:52:37.099Z,72.90
2018-04-09T10:55:03.975Z,70.40
2018-04-09T10:57:44.350Z,70.30
2018-04-09T11:00:23.842Z,70.80
2018-04-09T11:02:50.740Z,70.80
2018-04-09T11:05:17.722Z,70.60
2018-04-09T11:07:51.868Z,72.70
2018-04-09T11:10:22.228Z,71.90
2018-04-09T11:12:49.104Z,70.30
2018-04-09T11:15:16.058Z,71.30
2018-04-09T11:17:42.963Z,68.60
2018-04-09T11:20:17.475Z,70.60
2018-04-09T11:22:44.400Z,70.70
2018-04-09T11:25:11.286Z,68.30
2018-04-09T11:27:38.307Z,70.20
2018-04-09T11:30:05.191Z,68.90
2018-04-09T11:32:32.876Z,67.80
2018-04-09T11:34:59.762Z,67.50
2018-04-09T11:37:26.733Z,67.80
2018-04-09T11:40:08.116Z,67.80
2018-04-09T11:42:50.171Z,67.80
2018-04-09T11:45:19.467Z,67.50
2018-04-09T11:47:46.477Z,67.80
2018-04-09T11:50:14.177Z,69.10
2018-04-09T11:52:41.094Z,69.10
2018-04-09T11:55:08.808Z,69.00
2018-04-09T11:57:35.680Z,68.80
2018-04-09T12:00:06.952Z,66.30
2018-04-09T12:02:34.446Z,68.10
2018-04-09T12:05:01.954Z,66.90
2018-04-09T12:07:34.315Z,67.00
2018-04-09T12:10:02.107Z,65.60
2018-04-09T12:12:30.263Z,61.90
2018-04-09T12:14:57.236Z,61.90
2018-04-09T12:17:32.506Z,65.20
2018-04-09T12:19:59.790Z,65.10
2018-04-09T12:22:35.795Z,63.20
2018-04-09T12:25:03.487Z,64.40
2018-04-09T12:27:30.362Z,64.40
2018-04-09T12:29:57.242Z,62.30
2018-04-09T12:32:25.209Z,59.40
2018-04-09T12:34:58.623Z,62.90
2018-04-09T12:37:25.566Z,62.60
2018-04-09T12:40:02.861Z,62.40
2018-04-09T12:45:25.790Z,62.50
2018-04-09T12:48:05.566Z,59.30
2018-04-09T12:50:34.340Z,60.60
2018-04-09T12:53:02.116Z,56.40
2018-04-09T12:55:32.489Z,57.60
2018-04-09T12:57:59.573Z,57.50
2018-04-09T13:00:26.689Z,55.80
2018-04-09T13:02:54.033Z,56.80
2018-04-09T13:05:26.810Z,57.30
2018-04-09T13:08:04.678Z,54.60
2018-04-09T13:10:40.520Z,54.30
2018-04-09T13:13:17.143Z,58.40
2018-04-09T13:15:52.110Z,57.60
2018-04-09T13:18:28.560Z,54.70
2018-04-09T13:21:04.958Z,56.10
2018-04-09T13:23:40.547Z,57.90
2018-04-09T13:26:16.306Z,56.00
2018-04-09T13:28:51.666Z,57.30
2018-04-09T13:31:27.811Z,56.30
2018-04-09T13:34:02.972Z,56.20
2018-04-09T13:36:39.494Z,56.90
2018-04-09T13:39:15.384Z,57.50
2018-04-09T13:41:50.637Z,60.70
2018-04-09T13:44:29.180Z,58.50
2018-04-09T13:47:07.946Z,58.70
2018-04-09T13:49:48.705Z,59.20
2018-04-09T13:52:29.217Z,61.20
2018-04-09T13:57:56.350Z,57.80
2018-04-09T14:00:35.652Z,59.50
2018-04-09T14:03:16.049Z,59.50
2018-04-09T14:05:56.970Z,60.50
2018-04-09T14:11:24.908Z,61.20
2018-04-09T14:14:09.444Z,62.50
2018-04-09T14:16:48.283Z,62.70
2018-04-09T14:19:29.866Z,60.50
2018-04-09T14:22:12.807Z,61.20
2018-04-09T14:30:24.450Z,64.40
2018-04-09T14:33:04.253Z,64.00
2018-04-09T14:41:13.332Z,60.60
2018-04-09T14:43:54.882Z,61.10
2018-04-09T14:46:36.988Z,63.00
2018-04-09T14:49:23.038Z,62.20
2018-04-09T14:52:06.403Z,62.10
2018-04-09T14:54:45.521Z,61.80
2018-04-09T14:57:28.215Z,61.10
2018-04-09T15:00:11.422Z,61.60
2018-04-09T15:02:54.065Z,62.60
2018-04-09T15:05:36.286Z,64.20
2018-04-09T15:08:17.746Z,62.20
2018-04-09T15:10:59.580Z,60.10
2018-04-09T15:16:22.721Z,60.60
2018-04-09T15:19:06.126Z,61.60
2018-04-09T15:21:48.124Z,61.40
2018-04-09T15:27:13.028Z,62.00
2018-04-09T15:29:52.445Z,63.60
2018-04-09T15:32:33.675Z,63.60
2018-04-09T15:35:15.429Z,63.20
2018-04-09T15:37:56.089Z,63.30
2018-04-09T15:40:37.369Z,63.20
2018-04-09T15:43:18.230Z,64.50
2018-04-09T15:45:56.204Z,64.40
2018-04-09T15:48:35.874Z,62.60
2018-04-09T15:51:13.294Z,62.60
2018-04-09T15:53:54.760Z,61.10
2018-04-09T15:56:37.251Z,63.80
2018-04-09T15:59:17.397Z,63.80
2018-04-09T16:01:55.320Z,63.80
2018-04-09T16:04:35.901Z,63.90
2018-04-09T16:07:13.600Z,64.50
2018-04-09T16:09:55.870Z,63.30
2018-04-09T16:12:36.041Z,64.40
2018-04-09T16:15:17.099Z,62.90
2018-04-09T16:18:05.438Z,63.70
2018-04-09T16:20:44.648Z,61.20
2018-04-09T16:23:22.618Z,63.70
2018-04-09T16:26:01.735Z,66.60
2018-04-09T16:28:43.757Z,67.30
2018-04-09T16:31:27.924Z,68.10
2018-04-09T16:34:03.667Z,68.00
2018-04-09T16:36:46.652Z,68.80
2018-04-09T16:39:28.529Z,69.00
2018-04-09T16:42:06.670Z,69.70
2018-04-09T16:44:48.379Z,71.20
2018-04-09T16:47:32.481Z,71.20
2018-04-09T16:50:13.550Z,71.40
2018-04-09T16:52:53.419Z,71.00
2018-04-09T16:55:36.619Z,71.00
2018-04-09T16:58:16.424Z,71.70
2018-04-09T17:00:44.196Z,71.60
2018-04-09T17:03:11.157Z,72.20
2018-04-09T17:05:38.161Z,72.10
2018-04-09T17:08:05.777Z,73.20
2018-04-09T17:10:32.689Z,73.10
2018-04-09T17:12:59.642Z,73.00
2018-04-09T17:15:26.509Z,73.50
2018-04-09T17:17:53.454Z,73.70
2018-04-09T17:20:20.322Z,74.40
2018-04-09T17:22:47.268Z,75.70
2018-04-09T17:25:14.249Z,74.40
2018-04-09T17:27:41.135Z,74.40
2018-04-09T17:30:08.184Z,74.20
2018-04-09T17:32:35.120Z,74.50
2018-04-09T17:35:01.991Z,75.60
2018-04-09T17:37:28.853Z,75.10
2018-04-09T17:39:55.768Z,75.20
2018-04-09T17:42:22.627Z,75.10
2018-04-09T17:44:49.564Z,75.60
2018-04-09T17:47:16.421Z,77.20
2018-04-09T17:49:43.361Z,79.00
2018-04-09T17:52:10.250Z,78.00
2018-04-09T17:54:37.293Z,79.10
2018-04-09T17:57:04.165Z,81.20
2018-04-09T17:59:31.113Z,79.50
2018-04-09T18:01:57.964Z,79.60
2018-04-09T18:04:24.907Z,81.80
2018-04-09T18:06:51.780Z,82.40
2018-04-09T18:09:18.637Z,80.70
2018-04-09T18:11:45.580Z,80.90
2018-04-09T18:14:12.454Z,81.80
2018-04-09T18:16:40.131Z,83.40
2018-04-09T18:19:07.065Z,83.30
2018-04-09T18:21:34.002Z,83.00
2018-04-09T18:24:00.936Z,85.60
2018-04-09T18:26:28.554Z,87.10
2018-04-09T18:28:55.480Z,86.40
2018-04-09T18:31:22.469Z,86.00
2018-04-09T18:33:49.464Z,85.50
2018-04-09T18:36:16.413Z,86.00
2018-04-09T18:38:43.356Z,86.90
2018-04-09T18:41:10.226Z,88.70
2018-04-09T18:43:37.209Z,90.20
2018-04-09T18:46:04.098Z,90.60
2018-04-09T18:48:31.046Z,90.80
2018-04-09T18:50:58.021Z,90.50
2018-04-09T18:53:25.023Z,90.60
2018-04-09T18:55:51.978Z,90.70
2018-04-09T18:58:18.849Z,90.60
2018-04-09T19:00:45.785Z,91.10
2018-04-09T19:03:12.656Z,91.20
2018-04-09T19:05:39.602Z,91.30
2018-04-09T19:08:06.482Z,91.70
2018-04-09T19:10:34.155Z,92.70
2018-04-09T19:13:01.030Z,92.50
2018-04-09T19:15:27.978Z,93.10
2018-04-09T19:17:54.856Z,93.50
2018-04-09T19:20:21.736Z,93.20
2018-04-09T19:22:49.420Z,93.00
2018-04-09T19:25:16.391Z,93.00
2018-04-09T19:27:43.304Z,93.40
2018-04-09T19:30:10.261Z,93.20
2018-04-09T19:32:37.225Z,93.20
2018-04-09T19:35:08.177Z,93.30
2018-04-09T19:37:41.016Z,93.80
2018-04-09T19:40:14.097Z,94.20
2018-04-09T19:42:41.745Z,94.80
2018-04-09T19:45:08.722Z,94.80
2018-04-09T19:47:35.618Z,95.30
2018-04-09T19:50:02.648Z,95.40
2018-04-09T19:52:29.595Z,96.10
2018-04-09T19:54:56.497Z,96.60
2018-04-09T19:57:24.192Z,96.60
2018-04-09T19:59:51.181Z,96.60
2018-04-09T20:02:18.220Z,96.20
2018-04-09T20:04:45.113Z,97.30
2018-04-09T20:07:12.127Z,96.80
2018-04-09T20:09:39.797Z,96.90
2018-04-09T20:12:06.836Z,96.90
2018-04-09T20:14:33.787Z,96.50
2018-04-09T20:17:01.520Z,97.50
2018-04-09T20:19:28.516Z,97.30
2018-04-09T20:21:56.189Z,98.40
2018-04-09T20:24:23.214Z,98.50
2018-04-09T20:26:50.178Z,98.60
2018-04-09T20:29:18.248Z,98.30
2018-04-09T20:31:45.348Z,98.30
2018-04-09T20:34:12.260Z,98.40
2018-04-09T20:36:39.285Z,98.70
2018-04-09T20:39:07.114Z,99.70
2018-04-09T20:41:34.078Z,99.70
2018-04-09T20:44:01.744Z,99.40
2018-04-09T20:46:29.773Z,99.70
2018-04-09T20:48:56.737Z,99.90
2018-04-09T20:51:25.155Z,98.90
2018-04-09T20:53:52.074Z,99.10
2018-04-09T20:56:19.240Z,98.70
2018-04-09T20:58:46.124Z,98.70
2018-04-09T21:01:13.054Z,99.10
2018-04-09T21:03:40.014Z,99.20
2018-04-09T21:06:06.973Z,99.10
2018-04-09T21:08:33.936Z,99.30
2018-04-09T21:11:00.824Z,99.20
2018-04-09T21:13:27.774Z,99.40
2018-04-09T21:15:55.480Z,99.60
2018-04-09T21:18:22.429Z,99.60
2018-04-09T21:20:49.401Z,99.90
2018-04-09T21:23:16.349Z,99.90
2018-04-09T21:25:43.231Z,99.90
2018-04-09T21:28:10.926Z,99.90
2018-04-09T21:30:37.860Z,99.90
2018-04-09T21:33:04.820Z,99.90
2018-04-09T21:35:31.737Z,99.90
2018-04-09T21:37:59.552Z,99.90
2018-04-09T21:40:27.510Z,99.90
2018-04-09T21:42:54.529Z,99.90
2018-04-09T21:45:23.092Z,99.90
2018-04-09T21:47:50.153Z,99.90
2018-04-09T21:50:17.795Z,99.90
2018-04-09T21:52:47.335Z,99.90
2018-04-09T21:55:14.404Z,99.90
2018-04-09T21:57:41.373Z,99.90
2018-04-09T22:00:09.138Z,99.90
2018-04-09T22:02:36.146Z,99.90
2018-04-09T22:05:04.525Z,99.90
2018-04-09T22:07:32.241Z,99.90
2018-04-09T22:09:59.219Z,99.90
2018-04-09T22:12:28.099Z,99.90
2018-04-09T22:14:55.090Z,99.90
2018-04-09T22:17:24.079Z,99.90
2018-04-09T22:19:52.796Z,99.90
2018-04-09T22:22:19.869Z,99.90
2018-04-09T22:24:46.917Z,99.90
2018-04-09T22:27:13.831Z,99.90
2018-04-09T22:29:40.801Z,99.90
2018-04-09T22:32:08.365Z,99.90
2018-04-09T22:34:35.260Z,99.90
2018-04-09T22:37:02.210Z,99.90
2018-04-09T22:39:29.768Z,99.90
2018-04-09T22:41:56.705Z,99.90
2018-04-09T22:44:23.709Z,99.90
2018-04-09T22:46:50.654Z,99.90
2018-04-09T22:49:17.602Z,99.90
2018-04-09T22:51:44.507Z,99.90
2018-04-09T22:54:11.486Z,99.90
2018-04-09T22:56:38.489Z,99.90
2018-04-09T22:59:05.447Z,99.90
2018-04-09T23:01:32.355Z,99.90
2018-04-09T23:04:00.077Z,99.90
2018-04-09T23:06:27.025Z,99.90
2018-04-09T23:08:53.918Z,99.90
2018-04-09T23:11:21.642Z,99.90
2018-04-09T23:13:48.541Z,99.90
2018-04-09T23:16:15.506Z,99.90
2018-04-09T23:18:42.393Z,99.90
2018-04-09T23:21:09.360Z,99.90
2018-04-09T23:23:36.998Z,99.90
2018-04-09T23:26:03.985Z,99.90
2018-04-09T23:28:30.955Z,99.90
2018-04-09T23:30:57.839Z,99.90
2018-04-09T23:33:24.702Z,99.90
2018-04-09T23:35:51.644Z,99.90
2018-04-09T23:38:19.309Z,99.90
2018-04-09T23:40:46.167Z,99.90
2018-04-09T23:43:13.160Z,99.90
2018-04-09T23:45:40.087Z,99.90
2018-04-09T23:48:07.038Z,99.90
2018-04-09T23:50:33.985Z,99.90
2018-04-09T23:53:00.928Z,99.90
2018-04-09T23:55:27.801Z,99.90
2018-04-09T23:57:54.733Z,99.90
